Time;durP1;ratioP1;P1;durP2;ratioP2;P2;SDS_P1;SDS_P2;PMS_P1;PMS_P2;Temp;Humidity;BMP_temperature;BMP_pressure;BME280_temperature;BME280_humidity;BME280_pressure;Samples;Min_cycle;Max_cycle;Signal;HPM_P1;HPM_P2
2022/02/14 00:02:07;;;;;;;7.93;3.60;;;9.90;99.90;;;;;;5118478;28;20031;-77
2022/02/14 00:04:33;;;;;;;11.30;5.50;;;10.00;99.90;;;;;;5119250;28;20027;-77
2022/02/14 00:06:58;;;;;;;7.00;4.03;;;9.90;99.90;;;;;;5119474;28;20031;-78
2022/02/14 00:09:24;;;;;;;5.18;4.20;;;10.00;99.90;;;;;;5117525;28;20028;-78
2022/02/14 00:11:53;;;;;;;9.10;3.90;;;10.00;99.90;;;;;;5117971;28;20036;-76
2022/02/14 00:14:20;;;;;;;7.97;4.25;;;10.00;99.90;;;;;;5117685;28;20431;-76
2022/02/14 00:16:45;;;;;;;12.88;3.70;;;10.00;99.90;;;;;;5117601;28;20403;-78
2022/02/14 00:19:11;;;;;;;5.07;3.85;;;10.00;99.90;;;;;;5117419;28;20020;-77
2022/02/14 00:21:36;;;;;;;7.18;3.20;;;9.90;99.90;;;;;;5117685;28;20058;-78
2022/02/14 00:24:02;;;;;;;11.15;3.95;;;10.00;99.90;;;;;;5117987;28;20019;-78
2022/02/14 00:26:27;;;;;;;7.60;4.28;;;10.00;99.90;;;;;;5117904;28;20032;-77
2022/02/14 00:28:53;;;;;;;9.90;3.95;;;10.10;99.90;;;;;;5116924;28;20024;-76
2022/02/14 00:31:18;;;;;;;8.73;3.65;;;10.00;99.90;;;;;;5118428;28;20375;-76
2022/02/14 00:33:44;;;;;;;6.55;4.00;;;10.10;99.90;;;;;;5117917;28;20039;-76
2022/02/14 00:36:10;;;;;;;9.35;3.88;;;10.10;99.90;;;;;;5118362;28;20168;-77
2022/02/14 00:38:35;;;;;;;7.38;3.72;;;10.20;99.90;;;;;;5117889;28;20024;-77
2022/02/14 00:41:02;;;;;;;10.45;4.05;;;10.20;99.90;;;;;;5117717;28;20513;-76
2022/02/14 00:43:28;;;;;;;9.63;4.18;;;10.20;99.90;;;;;;5116376;28;20031;-77
2022/02/14 00:45:53;;;;;;;12.15;3.95;;;10.30;99.90;;;;;;5117427;28;20114;-77
2022/02/14 00:48:19;;;;;;;9.50;4.20;;;10.30;99.90;;;;;;5116992;28;20053;-77
2022/02/14 00:50:44;;;;;;;8.48;3.95;;;10.40;99.90;;;;;;5116751;28;20024;-77
2022/02/14 00:53:10;;;;;;;9.70;4.63;;;10.30;99.90;;;;;;5117306;28;20032;-78
2022/02/14 00:55:36;;;;;;;10.30;4.47;;;10.40;99.90;;;;;;5117779;28;20391;-77
2022/02/14 00:58:02;;;;;;;9.77;4.43;;;10.40;99.90;;;;;;5116700;28;20031;-78
2022/02/14 01:00:28;;;;;;;6.25;4.30;;;10.40;99.90;;;;;;5116404;28;20080;-78
2022/02/14 01:02:54;;;;;;;11.93;3.97;;;10.40;99.90;;;;;;5117407;28;20020;-77
2022/02/14 01:05:20;;;;;;;8.60;4.20;;;10.40;99.90;;;;;;5115808;28;20054;-78
2022/02/14 01:07:45;;;;;;;9.27;4.38;;;10.40;99.90;;;;;;5116983;28;20120;-78
2022/02/14 01:10:12;;;;;;;5.10;4.00;;;10.30;99.90;;;;;;5116063;28;20016;-78
2022/02/14 01:12:39;;;;;;;6.82;4.40;;;10.30;99.90;;;;;;5115407;28;20052;-77
2022/02/14 01:15:07;;;;;;;11.65;5.38;;;10.30;99.90;;;;;;5115748;28;20069;-76
2022/02/14 01:17:34;;;;;;;8.65;4.10;;;10.30;99.90;;;;;;5116031;28;20074;-78
2022/02/14 01:20:02;;;;;;;10.70;4.88;;;10.30;99.90;;;;;;5115677;28;20028;-77
2022/02/14 01:22:27;;;;;;;14.63;4.15;;;10.20;99.90;;;;;;5116453;28;20213;-77
2022/02/14 01:24:53;;;;;;;6.90;4.30;;;10.10;99.90;;;;;;5116107;28;20095;-77
2022/02/14 01:27:18;;;;;;;6.50;3.65;;;10.10;99.90;;;;;;5116413;28;20073;-78
2022/02/14 01:29:44;;;;;;;13.07;3.90;;;10.00;99.90;;;;;;5115771;28;20028;-77
2022/02/14 01:32:09;;;;;;;9.10;4.35;;;10.10;99.90;;;;;;5114458;28;20035;-76
2022/02/14 01:34:35;;;;;;;7.43;4.38;;;10.20;99.90;;;;;;5116206;28;20027;-78
2022/02/14 01:37:01;;;;;;;8.27;3.95;;;10.10;99.90;;;;;;5116977;28;20035;-76
2022/02/14 01:39:28;;;;;;;8.45;4.40;;;10.10;99.90;;;;;;5116838;28;20052;-76
2022/02/14 01:41:55;;;;;;;7.55;3.53;;;10.10;99.90;;;;;;5115880;28;20032;-76
2022/02/14 01:44:39;;;;;;;7.05;3.33;;;10.00;99.90;;;;;;5114548;28;20030;-77
2022/02/14 01:47:26;;;;;;;4.68;3.13;;;10.00;99.90;;;;;;5114547;28;20028;-77
2022/02/14 01:49:53;;;;;;;8.93;3.17;;;10.00;99.90;;;;;;5114571;28;20530;-78
2022/02/14 01:52:21;;;;;;;9.52;3.60;;;10.00;99.90;;;;;;5114773;28;20031;-78
2022/02/14 01:54:47;;;;;;;10.40;2.90;;;10.00;99.90;;;;;;5115246;28;20490;-76
2022/02/14 01:57:13;;;;;;;6.35;3.42;;;10.00;99.90;;;;;;5115670;28;20091;-77
2022/02/14 01:59:40;;;;;;;7.00;3.38;;;9.90;99.90;;;;;;5116484;28;20026;-78
2022/02/14 02:02:09;;;;;;;6.97;3.30;;;9.90;99.90;;;;;;5116728;28;20024;-78
2022/02/14 02:04:35;;;;;;;14.70;3.10;;;9.90;99.90;;;;;;5115938;28;20045;-77
2022/02/14 02:07:03;;;;;;;13.43;3.78;;;9.90;99.90;;;;;;5115345;28;20381;-78
2022/02/14 02:09:30;;;;;;;8.65;3.30;;;9.90;99.90;;;;;;5115596;28;20031;-78
2022/02/14 02:14:43;;;;;;;6.70;2.85;;;9.80;99.90;;;;;;5115972;28;20096;-78
2022/02/14 02:17:09;;;;;;;7.88;3.20;;;9.80;99.90;;;;;;5116009;28;20050;-77
2022/02/14 02:19:35;;;;;;;13.13;3.67;;;9.80;99.90;;;;;;5115441;28;20019;-78
2022/02/14 02:22:00;;;;;;;10.73;4.00;;;9.70;99.90;;;;;;5117415;28;20027;-77
2022/02/14 02:24:27;;;;;;;4.38;3.70;;;9.60;99.90;;;;;;5115937;28;20027;-79
2022/02/14 02:26:57;;;;;;;5.88;3.08;;;9.60;99.90;;;;;;5116505;28;20049;-78
2022/02/14 02:29:22;;;;;;;5.72;3.20;;;9.50;99.90;;;;;;5114759;28;20083;-77
2022/02/14 02:31:48;;;;;;;5.03;2.65;;;9.60;99.90;;;;;;5116003;28;20454;-78
2022/02/14 02:34:13;;;;;;;9.85;3.65;;;9.60;99.90;;;;;;5116082;28;20024;-79
2022/02/14 02:36:56;;;;;;;10.93;2.85;;;9.70;99.90;;;;;;5114100;28;20073;-76
2022/02/14 02:39:22;;;;;;;4.65;2.70;;;9.60;99.90;;;;;;5114426;28;20051;-77
2022/02/14 02:41:48;;;;;;;7.38;2.90;;;9.60;99.90;;;;;;5114762;28;20039;-77
2022/02/14 02:44:14;;;;;;;11.65;3.50;;;9.60;99.90;;;;;;5114475;28;20027;-76
2022/02/14 02:46:40;;;;;;;6.90;2.65;;;9.70;99.90;;;;;;5115659;28;20103;-77
2022/02/14 02:49:17;;;;;;;5.68;2.50;;;9.70;99.90;;;;;;5115229;28;20421;-77
2022/02/14 02:51:45;;;;;;;9.90;4.07;;;9.80;99.90;;;;;;5115395;28;20031;-76
2022/02/14 02:54:11;;;;;;;6.13;2.42;;;9.80;99.90;;;;;;5116874;27;20020;-78
2022/02/14 02:56:38;;;;;;;4.97;2.28;;;9.80;99.90;;;;;;5134492;27;20095;-78
2022/02/14 02:59:05;;;;;;;9.85;2.40;;;9.80;99.90;;;;;;5135912;27;20034;-78
2022/02/14 03:01:31;;;;;;;5.93;2.95;;;9.80;99.90;;;;;;5135196;27;20023;-78
2022/02/14 03:03:57;;;;;;;4.65;2.42;;;9.80;99.90;;;;;;5134834;27;20022;-77
2022/02/14 03:06:23;;;;;;;4.57;2.25;;;9.80;99.90;;;;;;5135484;27;20035;-78
2022/02/14 03:08:50;;;;;;;6.82;3.00;;;9.90;99.90;;;;;;5134837;27;20074;-77
2022/02/14 03:11:20;;;;;;;6.65;2.50;;;9.90;99.90;;;;;;5134145;28;20034;-77
2022/02/14 03:13:47;;;;;;;4.85;2.30;;;10.00;99.90;;;;;;5135492;28;20043;-77
2022/02/14 03:16:13;;;;;;;7.00;2.28;;;10.10;99.90;;;;;;5135962;27;20118;-77
2022/02/14 03:18:39;;;;;;;11.38;2.65;;;10.10;99.90;;;;;;5135768;28;20028;-76
2022/02/14 03:21:05;;;;;;;3.40;2.10;;;10.50;99.90;;;;;;5135681;28;20076;-77
2022/02/14 03:23:31;;;;;;;6.18;2.97;;;10.10;99.90;;;;;;5136033;28;20034;-77
2022/02/14 03:25:57;;;;;;;5.88;2.40;;;10.20;99.90;;;;;;5136327;27;20042;-77
2022/02/14 03:28:22;;;;;;;4.65;1.92;;;10.20;99.90;;;;;;5134854;28;20030;-77
2022/02/14 03:30:48;;;;;;;4.60;2.28;;;10.20;99.90;;;;;;5136214;27;20102;-77
2022/02/14 03:33:13;;;;;;;6.97;2.60;;;10.20;99.90;;;;;;5139065;27;20019;-77
2022/02/14 03:35:39;;;;;;;7.47;2.08;;;10.20;99.90;;;;;;5139756;27;20382;-78
2022/02/14 03:38:06;;;;;;;13.38;2.45;;;10.20;99.90;;;;;;5140144;27;20023;-76
2022/02/14 03:40:36;;;;;;;5.20;2.55;;;10.20;99.90;;;;;;5141181;27;20029;-77
2022/02/14 03:43:02;;;;;;;3.13;2.20;;;10.30;99.90;;;;;;5139684;27;20098;-76
2022/02/14 03:45:28;;;;;;;7.65;2.85;;;10.30;99.90;;;;;;5137999;27;20047;-77
2022/02/14 03:47:54;;;;;;;4.82;1.83;;;10.30;99.90;;;;;;5138535;27;20363;-77
2022/02/14 03:50:19;;;;;;;5.40;2.28;;;10.40;99.90;;;;;;5138712;27;20020;-75
2022/02/14 03:52:45;;;;;;;8.38;2.53;;;10.40;99.90;;;;;;5137578;27;20369;-77
2022/02/14 03:55:11;;;;;;;5.32;2.33;;;10.40;99.90;;;;;;5138303;27;20031;-77
2022/02/14 03:57:37;;;;;;;7.15;2.50;;;10.40;99.90;;;;;;5138747;27;20379;-76
2022/02/14 04:00:05;;;;;;;6.30;2.03;;;10.50;99.90;;;;;;5137855;27;20083;-76
2022/02/14 04:02:31;;;;;;;5.78;2.15;;;10.60;99.90;;;;;;5138438;27;20479;-75
2022/02/14 04:04:56;;;;;;;5.13;2.20;;;10.70;99.90;;;;;;5138184;27;20047;-77
2022/02/14 04:07:22;;;;;;;6.95;2.60;;;10.70;99.90;;;;;;5137267;27;20027;-77
2022/02/14 04:09:47;;;;;;;7.70;2.20;;;10.80;99.90;;;;;;5138607;27;20075;-76
2022/02/14 04:12:16;;;;;;;4.03;1.90;;;10.80;99.90;;;;;;5137771;27;20023;-77
2022/02/14 04:14:42;;;;;;;5.68;2.22;;;10.90;99.90;;;;;;5138144;27;20050;-77
2022/02/14 04:17:08;;;;;;;4.80;1.80;;;11.00;99.90;;;;;;5137919;27;20099;-77
2022/02/14 04:19:34;;;;;;;2.95;2.45;;;11.00;99.90;;;;;;5139433;27;20022;-76
2022/02/14 04:21:59;;;;;;;4.93;2.08;;;11.00;99.90;;;;;;5137367;27;20023;-77
2022/02/14 04:24:25;;;;;;;2.97;1.95;;;11.00;99.90;;;;;;5138153;27;20408;-77
2022/02/14 04:26:50;;;;;;;4.72;2.38;;;11.10;99.90;;;;;;5138972;27;20466;-78
2022/02/14 04:29:16;;;;;;;6.90;3.17;;;11.00;99.90;;;;;;5138879;27;20431;-78
2022/02/14 04:31:42;;;;;;;2.67;2.22;;;11.10;99.90;;;;;;5138990;27;20027;-76
2022/02/14 04:34:07;;;;;;;5.07;1.90;;;11.10;99.90;;;;;;5138401;27;20023;-77
2022/02/14 04:36:33;;;;;;;3.50;1.90;;;11.20;99.90;;;;;;5138450;27;20031;-77
2022/02/14 04:38:58;;;;;;;5.03;1.95;;;11.20;99.90;;;;;;5138351;27;20019;-78
2022/02/14 04:41:24;;;;;;;4.43;1.73;;;11.20;99.90;;;;;;5138565;27;20076;-77
2022/02/14 04:43:51;;;;;;;3.03;1.83;;;11.70;99.90;;;;;;5137853;27;20113;-77
2022/02/14 04:46:18;;;;;;;6.28;2.20;;;11.20;99.90;;;;;;5138804;27;20035;-77
2022/02/14 04:48:44;;;;;;;4.22;2.22;;;11.20;99.90;;;;;;5139334;27;20098;-77
2022/02/14 04:51:10;;;;;;;6.85;1.92;;;11.30;99.90;;;;;;5138449;27;20057;-77
2022/02/14 04:53:35;;;;;;;4.18;1.90;;;11.30;99.90;;;;;;5138504;27;20030;-76
2022/02/14 04:56:01;;;;;;;3.47;1.77;;;11.30;99.90;;;;;;5138303;27;20027;-78
2022/02/14 04:58:26;;;;;;;6.53;1.88;;;11.40;99.90;;;;;;5141198;27;20035;-76
2022/02/14 05:00:52;;;;;;;3.70;2.28;;;11.40;99.90;;;;;;5139470;27;20106;-77
2022/02/14 05:03:18;;;;;;;2.63;1.60;;;11.40;99.90;;;;;;5136472;27;20023;-76
2022/02/14 05:05:49;;;;;;;4.15;1.88;;;11.30;99.90;;;;;;5137005;27;20052;-77
2022/02/14 05:08:15;;;;;;;4.50;2.08;;;11.40;99.90;;;;;;5138340;27;20031;-77
2022/02/14 05:10:40;;;;;;;4.90;2.20;;;11.40;99.90;;;;;;5139181;27;20473;-76
2022/02/14 05:13:06;;;;;;;3.20;2.03;;;11.40;99.90;;;;;;5137365;27;20037;-77
2022/02/14 05:15:31;;;;;;;4.43;1.90;;;11.30;99.90;;;;;;5137024;27;20023;-76
2022/02/14 05:17:57;;;;;;;4.13;2.25;;;11.40;99.90;;;;;;5136880;27;20110;-76
2022/02/14 05:20:22;;;;;;;4.10;1.83;;;11.50;99.90;;;;;;5137152;27;20054;-77
2022/02/14 05:22:48;;;;;;;2.67;1.95;;;11.50;99.90;;;;;;5136978;27;20106;-77
2022/02/14 05:25:14;;;;;;;3.72;2.20;;;11.50;99.90;;;;;;5135295;27;20452;-77
2022/02/14 05:27:39;;;;;;;5.13;2.17;;;11.40;99.90;;;;;;5137510;27;20044;-76
2022/02/14 05:30:06;;;;;;;3.67;2.03;;;11.40;99.90;;;;;;5136855;27;20027;-79
2022/02/14 05:32:32;;;;;;;5.28;2.53;;;11.40;99.90;;;;;;5135979;27;20098;-78
2022/02/14 05:34:57;;;;;;;9.00;2.00;;;11.40;99.90;;;;;;5136181;27;20442;-78
2022/02/14 05:37:23;;;;;;;3.78;2.40;;;11.50;99.90;;;;;;5136542;27;20510;-77
2022/02/14 05:39:49;;;;;;;6.93;2.08;;;11.50;99.90;;;;;;5136783;27;20019;-77
2022/02/14 05:42:15;;;;;;;3.75;2.20;;;11.50;99.90;;;;;;5137357;27;20047;-78
2022/02/14 05:44:44;;;;;;;5.15;2.20;;;11.40;99.90;;;;;;5138265;27;20030;-79
2022/02/14 05:47:10;;;;;;;6.20;2.13;;;11.40;99.90;;;;;;5136266;27;20139;-78
2022/02/14 05:49:36;;;;;;;5.53;2.58;;;11.40;99.90;;;;;;5135982;27;20061;-78
2022/02/14 05:52:02;;;;;;;11.07;3.42;;;11.40;99.90;;;;;;5136015;27;20083;-78
2022/02/14 05:54:28;;;;;;;5.55;1.83;;;11.40;99.90;;;;;;5135910;27;20065;-78
2022/02/14 05:56:54;;;;;;;2.70;1.92;;;11.40;99.90;;;;;;5136156;27;20421;-78
2022/02/14 05:59:19;;;;;;;4.68;1.98;;;11.30;99.90;;;;;;5135875;27;20016;-76
2022/02/14 06:01:45;;;;;;;5.25;2.22;;;11.40;99.90;;;;;;5137498;27;20019;-78
2022/02/14 06:04:11;;;;;;;3.42;2.40;;;11.30;99.90;;;;;;5137594;27;20023;-78
2022/02/14 06:06:36;;;;;;;3.88;2.08;;;11.40;99.90;;;;;;5135861;27;20078;-77
2022/02/14 06:09:03;;;;;;;2.97;2.00;;;11.40;99.90;;;;;;5137103;27;20203;-77
2022/02/14 06:11:28;;;;;;;4.45;1.98;;;11.40;99.90;;;;;;5136958;27;20531;-78
2022/02/14 06:13:54;;;;;;;2.22;2.03;;;11.40;99.90;;;;;;5135362;27;20023;-79
2022/02/14 06:16:20;;;;;;;6.90;2.42;;;11.40;99.90;;;;;;5135989;27;20114;-77
2022/02/14 06:18:46;;;;;;;6.55;3.47;;;11.40;99.90;;;;;;5137086;27;20417;-77
2022/02/14 06:21:11;;;;;;;8.60;2.10;;;11.40;99.90;;;;;;5135519;27;20470;-78
2022/02/14 06:23:37;;;;;;;6.75;2.00;;;11.40;99.90;;;;;;5137021;27;20411;-77
2022/02/14 06:26:03;;;;;;;4.55;2.35;;;11.40;99.90;;;;;;5136379;27;20102;-77
2022/02/14 06:28:29;;;;;;;4.55;2.45;;;11.40;99.90;;;;;;5137407;27;20079;-79
2022/02/14 06:30:54;;;;;;;6.45;2.63;;;11.40;99.90;;;;;;5135964;27;20560;-79
2022/02/14 06:33:20;;;;;;;3.08;1.48;;;11.30;99.90;;;;;;5134703;27;20031;-79
2022/02/14 06:35:46;;;;;;;4.60;1.33;;;11.20;99.90;;;;;;5131752;27;20053;-78
2022/02/14 06:38:11;;;;;;;4.07;1.30;;;11.00;99.90;;;;;;5120726;27;20163;-76
2022/02/14 06:40:37;;;;;;;1.58;0.90;;;10.80;99.90;;;;;;5115810;27;20051;-78
2022/02/14 06:43:02;;;;;;;1.33;0.90;;;10.60;99.90;;;;;;5123875;27;20559;-79
2022/02/14 06:45:28;;;;;;;2.58;1.10;;;10.50;99.90;;;;;;5114657;27;20053;-77
2022/02/14 06:47:54;;;;;;;1.65;1.08;;;10.30;99.90;;;;;;5114637;27;20012;-77
2022/02/14 06:50:19;;;;;;;3.00;0.90;;;10.10;99.90;;;;;;5112850;28;20432;-78
2022/02/14 06:52:45;;;;;;;3.17;0.90;;;10.00;99.90;;;;;;5114299;28;20028;-78
2022/02/14 06:55:11;;;;;;;1.30;1.02;;;9.90;99.90;;;;;;5115982;28;20104;-76
2022/02/14 06:57:37;;;;;;;2.53;1.10;;;9.80;99.90;;;;;;5113307;28;20083;-77
2022/02/14 07:00:10;;;;;;;1.10;0.90;;;9.70;99.90;;;;;;5120233;27;20019;-78
2022/02/14 07:02:36;;;;;;;2.42;0.98;;;9.60;99.90;;;;;;5117655;27;20038;-77
2022/02/14 07:05:01;;;;;;;2.55;1.17;;;9.60;99.90;;;;;;5114587;28;20035;-76
2022/02/14 07:07:27;;;;;;;1.52;0.90;;;9.50;99.90;;;;;;5116803;28;20024;-77
2022/02/14 07:09:52;;;;;;;2.10;0.90;;;9.50;99.90;;;;;;5116921;27;20039;-78
2022/02/14 07:12:18;;;;;;;0.80;0.80;;;9.40;99.90;;;;;;5118740;28;20043;-76
2022/02/14 07:14:44;;;;;;;2.25;1.08;;;9.40;99.90;;;;;;5115839;28;20027;-77
2022/02/14 07:17:11;;;;;;;1.25;0.85;;;9.50;99.90;;;;;;5116128;27;20030;-77
2022/02/14 07:19:38;;;;;;;1.40;1.30;;;9.30;99.90;;;;;;5134339;28;20094;-78
2022/02/14 07:22:04;;;;;;;6.72;1.25;;;9.30;99.90;;;;;;5128318;28;20030;-76
2022/02/14 07:24:30;;;;;;;9.18;3.45;;;9.30;99.90;;;;;;5116083;28;20019;-77
2022/02/14 07:26:56;;;;;;;2.05;1.75;;;9.30;99.90;;;;;;5117385;28;20027;-78
2022/02/14 07:29:21;;;;;;;2.70;1.58;;;9.40;99.90;;;;;;5119363;27;20027;-77
2022/02/14 07:31:47;;;;;;;2.35;1.38;;;9.30;99.90;;;;;;5113348;28;20152;-76
2022/02/14 07:34:12;;;;;;;2.05;1.30;;;9.30;99.90;;;;;;5114676;28;20416;-79
2022/02/14 07:36:38;;;;;;;4.53;1.27;;;9.20;99.90;;;;;;5117393;28;20031;-77
2022/02/14 07:39:04;;;;;;;2.17;1.40;;;9.30;99.90;;;;;;5117905;28;20020;-80
2022/02/14 07:41:32;;;;;;;4.70;1.42;;;9.30;99.90;;;;;;5116456;28;20035;-77
2022/02/14 07:43:57;;;;;;;3.92;1.50;;;9.30;99.90;;;;;;5119046;28;20019;-80
2022/02/14 07:46:23;;;;;;;3.92;1.23;;;9.30;99.90;;;;;;5120606;28;20012;-79
2022/02/14 07:48:49;;;;;;;7.38;1.15;;;9.30;99.90;;;;;;5121242;28;20051;-80
2022/02/14 07:51:17;;;;;;;3.38;1.20;;;9.30;99.90;;;;;;5115396;28;20471;-76
2022/02/14 07:53:43;;;;;;;1.65;1.17;;;9.30;99.90;;;;;;5114723;28;20020;-81
2022/02/14 07:56:12;;;;;;;2.45;1.08;;;9.30;99.90;;;;;;5115458;28;20026;-79
2022/02/14 07:58:39;;;;;;;4.75;1.60;;;9.30;99.90;;;;;;5115614;28;20034;-80
2022/02/14 08:01:05;;;;;;;3.15;1.00;;;9.30;99.90;;;;;;5117186;28;20035;-80
2022/02/14 08:03:31;;;;;;;2.08;1.25;;;9.30;99.90;;;;;;5115372;28;20062;-81
2022/02/14 08:05:59;;;;;;;2.55;1.25;;;9.30;99.90;;;;;;5115987;28;20054;-80
2022/02/14 08:08:25;;;;;;;1.90;1.05;;;9.30;99.90;;;;;;5129501;28;20031;-84
2022/02/14 08:10:51;;;;;;;2.13;0.93;;;9.40;99.90;;;;;;5145976;28;20015;-84
2022/02/14 08:13:18;;;;;;;2.85;1.23;;;9.40;99.90;;;;;;5147225;28;20065;-85
2022/02/14 08:15:46;;;;;;;1.90;1.42;;;9.50;99.90;;;;;;5139550;27;20035;-85
2022/02/14 08:18:12;;;;;;;5.10;1.85;;;9.50;99.90;;;;;;5121259;28;20054;-86
2022/02/14 08:20:40;;;;;;;2.13;0.98;;;9.50;99.90;;;;;;5128511;27;20471;-86
2022/02/14 08:23:07;;;;;;;3.55;1.10;;;9.50;99.90;;;;;;5131068;27;20042;-85
2022/02/14 08:25:36;;;;;;;6.68;1.15;;;9.60;99.90;;;;;;5127321;27;20062;-85
2022/02/14 08:28:03;;;;;;;1.98;1.30;;;9.50;99.90;;;;;;5130621;27;20016;-86
2022/02/14 08:30:28;;;;;;;2.10;0.82;;;9.60;99.90;;;;;;5131335;27;20059;-86
2022/02/14 08:32:54;;;;;;;1.63;1.23;;;9.60;99.90;;;;;;5125583;28;20041;-86
2022/02/14 08:35:20;;;;;;;2.95;1.58;;;9.70;99.90;;;;;;5122424;28;20049;-87
2022/02/14 08:37:47;;;;;;;2.33;1.58;;;9.70;99.90;;;;;;5122325;28;20118;-84
2022/02/14 08:40:14;;;;;;;2.45;1.65;;;9.70;99.90;;;;;;5120901;28;20044;-85
2022/02/14 08:42:40;;;;;;;3.58;2.00;;;9.70;99.90;;;;;;5120548;28;20057;-80
2022/02/14 08:45:06;;;;;;;5.20;2.08;;;9.70;99.90;;;;;;5120436;28;20058;-86
2022/02/14 08:47:32;;;;;;;4.07;2.10;;;9.80;99.90;;;;;;5122496;28;20425;-82
2022/02/14 08:49:59;;;;;;;2.10;1.85;;;9.80;99.90;;;;;;5118171;28;20024;-76
2022/02/14 08:52:27;;;;;;;2.10;1.90;;;9.80;99.90;;;;;;5118847;28;20415;-79
2022/02/14 08:54:56;;;;;;;2.20;2.00;;;9.80;99.90;;;;;;5120323;28;20003;-79
2022/02/14 08:57:22;;;;;;;2.38;2.20;;;9.60;99.90;;;;;;5119514;28;20070;-80
2022/02/14 08:59:48;;;;;;;3.05;2.55;;;9.90;99.90;;;;;;5120377;28;20028;-83
2022/02/14 09:02:14;;;;;;;3.80;2.47;;;9.90;99.90;;;;;;5119905;28;20035;-84
2022/02/14 09:04:40;;;;;;;6.40;2.45;;;10.00;99.90;;;;;;5120721;28;20032;-85
2022/02/14 09:07:05;;;;;;;3.97;2.13;;;10.00;99.90;;;;;;5121625;28;20031;-85
2022/02/14 09:09:31;;;;;;;4.20;1.60;;;10.00;99.90;;;;;;5119753;28;20016;-85
2022/02/14 09:11:57;;;;;;;2.50;1.60;;;10.10;99.90;;;;;;5120901;28;20035;-85
2022/02/14 09:14:23;;;;;;;3.00;1.98;;;10.10;99.90;;;;;;5128729;27;20111;-84
2022/02/14 09:16:51;;;;;;;1.55;1.45;;;10.10;99.90;;;;;;5118833;28;20486;-75
2022/02/14 09:19:17;;;;;;;1.90;1.67;;;10.10;99.90;;;;;;5120446;28;20055;-85
2022/02/14 09:21:43;;;;;;;2.17;1.67;;;10.00;99.90;;;;;;5122394;28;20032;-85
2022/02/14 09:24:13;;;;;;;3.58;2.20;;;10.00;99.90;;;;;;5120964;28;20024;-83
2022/02/14 09:26:41;;;;;;;1.70;1.50;;;10.00;99.90;;;;;;5121298;28;20028;-81
2022/02/14 09:29:07;;;;;;;7.38;1.90;;;10.00;99.90;;;;;;5122296;28;20016;-82
2022/02/14 09:31:33;;;;;;;3.25;1.20;;;9.90;99.90;;;;;;5124210;27;20072;-75
2022/02/14 09:33:58;;;;;;;3.25;1.80;;;10.00;99.90;;;;;;5138136;27;20024;-85
2022/02/14 09:36:24;;;;;;;4.68;1.75;;;10.00;99.90;;;;;;5136751;27;20043;-85
2022/02/14 09:38:50;;;;;;;3.15;1.17;;;10.00;99.90;;;;;;5151467;27;20540;-84
2022/02/14 09:41:16;;;;;;;4.55;2.08;;;10.00;99.90;;;;;;5141294;27;20194;-83
2022/02/14 09:43:47;;;;;;;4.20;1.73;;;10.10;99.90;;;;;;5122773;27;20372;-85
2022/02/14 09:46:13;;;;;;;3.67;1.50;;;10.10;99.90;;;;;;5124297;27;20355;-84
2022/02/14 09:48:42;;;;;;;3.05;1.60;;;10.10;99.90;;;;;;5126003;27;20019;-85
2022/02/14 09:51:12;;;;;;;4.15;1.40;;;10.10;99.90;;;;;;5127510;27;20028;-82
2022/02/14 09:53:40;;;;;;;9.73;1.75;;;10.00;99.90;;;;;;5129471;27;20043;-85
2022/02/14 09:56:05;;;;;;;5.22;1.45;;;10.00;99.90;;;;;;5132254;27;20097;-84
2022/02/14 09:58:31;;;;;;;9.18;2.42;;;10.00;99.90;;;;;;5138197;27;20019;-84
2022/02/14 10:01:00;;;;;;;7.38;1.70;;;10.00;99.90;;;;;;5139259;27;20063;-84
2022/02/14 10:03:27;;;;;;;6.30;1.65;;;10.10;99.90;;;;;;5125433;27;20080;-83
2022/02/14 10:05:54;;;;;;;4.95;1.48;;;10.10;99.90;;;;;;5133161;27;20445;-83
2022/02/14 10:08:23;;;;;;;5.78;1.30;;;10.20;99.90;;;;;;5128355;27;20490;-85
2022/02/14 10:10:50;;;;;;;2.65;1.13;;;10.20;99.90;;;;;;5125437;27;20403;-83
2022/02/14 10:13:33;;;;;;;3.83;1.85;;;10.30;99.90;;;;;;5125666;27;20000;-84
2022/02/14 10:16:00;;;;;;;4.63;1.90;;;10.40;99.90;;;;;;5130503;27;20023;-78
2022/02/14 10:18:34;;;;;;;3.72;1.73;;;10.40;99.90;;;;;;5130674;27;20108;-84
2022/02/14 10:21:28;;;;;;;4.63;2.03;;;10.40;99.90;;;;;;5128477;27;20097;-84
2022/02/14 10:24:08;;;;;;;3.33;1.95;;;10.40;99.90;;;;;;5124277;27;20374;-83
2022/02/14 10:26:54;;;;;;;3.00;1.45;;;10.50;99.90;;;;;;5131072;27;20466;-83
2022/02/14 10:29:24;;;;;;;6.90;2.78;;;10.50;99.90;;;;;;5127497;27;20426;-84
2022/02/14 10:31:58;;;;;;;4.03;2.05;;;10.40;99.90;;;;;;5131785;27;20027;-84
2022/02/14 10:34:41;;;;;;;5.10;1.55;;;10.40;99.90;;;;;;5123373;27;20532;-84
2022/02/14 10:37:12;;;;;;;4.13;1.55;;;10.40;99.90;;;;;;5120758;27;20067;-83
2022/02/14 10:39:39;;;;;;;5.07;2.50;;;10.40;99.90;;;;;;5124953;27;20089;-84
2022/02/14 10:42:11;;;;;;;7.90;1.77;;;10.30;99.90;;;;;;5128304;27;20058;-84
2022/02/14 10:47:27;;;;;;;5.15;1.65;;;10.40;99.90;;;;;;5125330;27;20359;-84
2022/02/14 10:50:11;;;;;;;9.90;1.40;;;10.40;99.90;;;;;;5131130;27;20148;-82
2022/02/14 10:52:43;;;;;;;3.88;1.60;;;10.40;99.90;;;;;;5125591;27;20512;-83
2022/02/14 10:55:11;;;;;;;7.43;1.75;;;10.40;99.90;;;;;;5121675;27;20050;-84
2022/02/14 10:57:39;;;;;;;5.05;1.08;;;10.30;99.90;;;;;;5125942;27;20066;-84
2022/02/14 11:00:11;;;;;;;3.33;1.27;;;10.30;99.90;;;;;;5128667;27;20104;-83
2022/02/14 11:02:43;;;;;;;5.22;0.90;;;10.20;99.90;;;;;;5130863;27;20031;-82
2022/02/14 11:05:13;;;;;;;5.38;0.98;;;10.20;99.90;;;;;;5125215;27;20043;-83
2022/02/14 11:07:40;;;;;;;5.80;1.05;;;10.20;99.90;;;;;;5127254;27;20039;-83
2022/02/14 11:10:12;;;;;;;6.60;1.30;;;10.30;99.90;;;;;;5120511;27;20019;-85
2022/02/14 11:12:59;;;;;;;7.75;1.10;;;10.40;99.90;;;;;;5125982;27;20080;-85
2022/02/14 11:15:30;;;;;;;7.20;1.52;;;10.50;99.90;;;;;;5133928;27;20027;-82
2022/02/14 11:18:03;;;;;;;6.82;1.40;;;10.60;99.90;;;;;;5127319;27;20049;-85
2022/02/14 11:20:29;;;;;;;7.15;1.52;;;10.60;99.90;;;;;;5139609;27;20034;-84
2022/02/14 11:22:58;;;;;;;3.47;1.30;;;10.70;99.90;;;;;;5136252;28;20043;-86
2022/02/14 11:25:28;;;;;;;5.95;1.23;;;10.70;99.90;;;;;;5141758;28;20432;-84
2022/02/14 11:28:30;;;;;;;8.80;1.60;;;10.70;99.90;;;;;;5139323;28;20042;-84
2022/02/14 11:31:18;;;;;;;5.82;1.30;;;10.80;99.90;;;;;;5137598;28;20024;-84
2022/02/14 11:33:56;;;;;;;5.97;1.25;;;10.70;99.90;;;;;;5137540;27;20023;-86
2022/02/14 11:36:23;;;;;;;4.80;1.40;;;10.70;99.90;;;;;;5137478;28;20038;-84
2022/02/14 11:38:56;;;;;;;5.05;1.80;;;10.70;99.90;;;;;;5138530;27;20031;-84
2022/02/14 11:41:42;;;;;;;6.15;1.60;;;10.60;99.90;;;;;;5137552;28;20114;-82
2022/02/14 11:44:22;;;;;;;1.95;0.73;;;10.50;99.90;;;;;;5142028;28;20038;-82
2022/02/14 11:47:07;;;;;;;;;;;10.50;99.90;;;;;;5127091;28;20035;-82
2022/02/14 11:49:49;;;;;;;6.60;1.45;;;10.50;99.90;;;;;;5128031;28;19925;-84
2022/02/14 11:52:34;;;;;;;8.10;1.30;;;10.50;99.90;;;;;;5127477;27;20027;-84
2022/02/14 11:55:03;;;;;;;6.28;0.80;;;10.50;99.90;;;;;;5137381;27;20390;-83
2022/02/14 11:57:45;;;;;;;4.15;0.90;;;10.60;99.90;;;;;;5141713;27;20114;-84
2022/02/14 12:00:19;;;;;;;3.13;1.13;;;10.60;99.90;;;;;;5138691;27;20020;-83
2022/02/14 12:03:10;;;;;;;3.72;0.70;;;10.70;99.90;;;;;;5140370;27;20417;-82
2022/02/14 12:05:40;;;;;;;5.13;1.13;;;10.80;99.90;;;;;;5140785;27;20072;-84
2022/02/14 12:08:06;;;;;;;4.50;0.93;;;11.00;99.90;;;;;;5142717;27;20042;-84
2022/02/14 12:10:55;;;;;;;3.80;2.15;;;11.10;99.90;;;;;;5141308;27;20260;-83
2022/02/14 12:13:25;;;;;;;6.68;0.90;;;11.00;99.90;;;;;;5140203;27;20474;-83
2022/02/14 12:21:20;;;;;;;5.00;1.30;;;10.90;99.90;;;;;;5140739;27;20088;-84
2022/02/14 12:23:56;;;;;;;5.07;1.30;;;10.90;99.90;;;;;;5141561;27;20031;-84
2022/02/14 12:26:31;;;;;;;3.25;1.33;;;10.90;99.90;;;;;;5142445;27;20042;-84
2022/02/14 12:31:52;;;;;;;5.43;0.70;;;10.90;99.90;;;;;;5130072;27;20059;-83
2022/02/14 12:34:26;;;;;;;5.15;0.80;;;10.80;99.90;;;;;;5141219;27;20023;-84
2022/02/14 12:36:59;;;;;;;3.33;0.77;;;10.70;99.90;;;;;;5141172;27;20359;-84
2022/02/14 12:39:37;;;;;;;2.22;1.65;;;10.70;99.90;;;;;;5135455;27;20029;-85
2022/02/14 12:42:19;;;;;;;2.83;1.33;;;10.60;99.90;;;;;;5108799;28;20043;-82
2022/02/14 12:44:45;;;;;;;4.18;0.88;;;10.60;99.90;;;;;;5133316;27;20486;-85
2022/02/14 12:47:12;;;;;;;3.65;1.13;;;10.70;99.90;;;;;;5133758;27;20027;-83
2022/02/14 12:49:42;;;;;;;6.18;1.65;;;10.80;99.90;;;;;;5141710;27;20047;-83
2022/02/14 12:52:17;;;;;;;3.55;0.70;;;10.80;99.90;;;;;;5145837;27;20031;-83
2022/02/14 12:54:58;;;;;;;5.78;0.90;;;10.90;99.90;;;;;;5141149;27;20497;-85
2022/02/14 12:57:45;;;;;;;3.10;0.85;;;11.00;99.90;;;;;;5138982;27;20035;-83
2022/02/14 13:00:26;;;;;;;5.32;1.40;;;11.10;99.90;;;;;;5141866;27;20012;-83
2022/02/14 13:03:04;;;;;;;6.28;2.03;;;11.10;99.90;;;;;;5141688;27;20031;-82
2022/02/14 13:05:31;;;;;;;8.00;1.20;;;11.20;99.90;;;;;;5142188;27;20039;-84
2022/02/14 13:07:58;;;;;;;5.28;1.55;;;11.20;99.90;;;;;;5133880;27;20462;-84